Charlotte (CLT/KCLT)

Map

Destinations

Information

Location
Charlotte, NC
Local Time
23:56 / 11:56 pm
GMT Time
03:56 / 3:56 am
Gates
A7
No FAA reported delays
METAR KCLT 170352Z 33004KT 10SM BKN090 27/24 A3006 RMK AO2 SLP170 T02670244
TAF KCLT 162332Z 1700/1724 28005KT P6SM FEW050 SCT110 BKN250 FM170300 00000KT P6SM SCT090 FM170800 14003KT P6SM BKN200 FM171500 20003KT P6SM SCT040 FM171900 21005KT P6SM BKN045 PROB30 1719/1724 4SM -TSRA OVC025CB